28°C
Woerden, The Nederlands
Taal:  Nederlands
Updated23/07/2018 19:10 
 

Nearby METAR Reports

EHAM - Amsterdam/Schiph, Netherlands
Distance from station: N 27km
Updated: 23/07/2018 18:55
Helder
Helder
 Wind van W
Wind: W 13 km/h
Temperatuur: 28°C
Heat Index: 28°C
Dauwpunt: 15°C
Vochtigheid: 45%
Barometer: 1016 hPa
Overzicht: Helder
Visibility: greater than 10 km
2018/07/23 16:55 EHAM 231655Z 26007KT 230V310 CAVOK 28/15 Q1016 NOSIG
EHRD - Rotterdam Airpor, Netherlands
Distance from station: WZW 30km
Updated: 23/07/2018 18:55
Gedeeltelijk bewolkt
Gedeeltelijk bewolkt
 Wind van W
Wind: W 11 km/h
Temperatuur: 28°C
Heat Index: 28°C
Dauwpunt: 15°C
Vochtigheid: 45%
Barometer: 1016 hPa
Clouds: Gedeeltelijk bewolkt
Visibility: 10 km
2018/07/23 16:55 EHRD 231655Z AUTO 28006KT 240V320 9999 NSC 28/15 Q1016 NOSIG
 
EHGR - Gilze-Rijen Rnla, Netherlands
Distance from station: Z 57km
Updated: 23/07/2018 18:55
Helder
Helder
 Wind van N
Wind: N 11 km/h
Temperatuur: 30°C
Heat Index: 29°C
Dauwpunt: 15°C
Vochtigheid: 40%
Barometer: 1016 hPa
Clouds: Helder
Visibility: 10 km
2018/07/23 16:55 EHGR 231655Z AUTO 36006KT 290V060 9999 NCD 30/15 Q1016 BLU 36008KT CAVOK
EHDL - Deelen Rnlafb, Netherlands
Distance from station: O 71km
Updated: 23/07/2018 18:55
Few Clouds
Few Clouds
 Wind van varies
Wind: varies 4 km/h
Temperatuur: 30°C
Dauwpunt: 14°C
Vochtigheid: 38%
Barometer: 1015 hPa
Clouds: Few Clouds
Visibility: 10 km
Cloud details: Few Clouds 1920 m
2018/07/23 16:55 EHDL 231655Z AUTO VRB02KT 9999 FEW063 30/14 Q1015 BLU
 
EHVK - Volkel Rnlafb, Netherlands
Distance from station: ZO 77km
Updated: 23/07/2018 18:55
Few Clouds
Few Clouds
 Wind van NNW
Wind: NNW 7 km/h
Temperatuur: 30°C
Heat Index: 30°C
Dauwpunt: 16°C
Vochtigheid: 43%
Barometer: 1016 hPa
Clouds: Few Clouds
Visibility: 10 km
Cloud details: Few Clouds 9754 m
2018/07/23 16:55 EHVK 231655Z AUTO 34004KT 280V050 9999 FEW320 30/16 Q1016 BLU
EHWO - Woensdrecht Rnla, Netherlands
Distance from station: ZZW 78km
Updated: 23/07/2018 18:55
Helder
Helder
 Wind van NW
Wind: NW 6 km/h
Temperatuur: 30°C
Dauwpunt: 14°C
Vochtigheid: 38%
Barometer: 1016 hPa
Clouds: Helder
Visibility: 10 km
2018/07/23 16:55 EHWO 231655Z AUTO 32003KT 340V110 9999 NCD 30/14 Q1016 BLU 26010KT CAVOK
 
EHEH - Eindhoven Rnlafb, Netherlands
Distance from station: ZZO 81km
Updated: 23/07/2018 18:55
Zwaar bewolkt
Zwaar bewolkt
 Wind van varies
Wind: varies 4 km/h
Temperatuur: 30°C
Heat Index: 29°C
Dauwpunt: 15°C
Vochtigheid: 40%
Barometer: 1016 hPa
Clouds: Zwaar bewolkt
Visibility: 10 km
Cloud details: Zwaar bewolkt 1646 m
2018/07/23 16:55 EHEH 231655Z AUTO VRB02KT 9999 OVC054 30/15 Q1016 BLU VRB05KT CAVOK
EHSC - Goeree Le Sea, Netherlands
Distance from station: W 81km
Updated: 23/07/2018 18:55

 Wind van ZW
Wind: ZW 2 km/h
Temperatuur: 22°C
Dauwpunt: 17°C
Vochtigheid: 73%
Barometer: 1016 hPa
Visibility: 10 km
2018/07/23 16:55 EHSC 231655Z AUTO 22001KT 9999 ///////// 22/17 Q1016 W20/H3